Attleboro, Massachusetts
Current Conditions -  °F | °C
As of 5:35 PM on Monday 24 Nov 2014 (Local Time) from KSFZ Reporting Station
Overcast Overcast  
Wind Chill: 61°   Ceiling: 1000
Heat Index: 61°   Visibility: 10mi
Dew Point: 54°   Wind: 13mph
Humidity: 77%   Direction: 210°SSW
Pressure: 29.62"   Gusts: 21mph
Location:  41.95°N, 71.28°W
Report Text: KSFZ 242235Z 21011G18KT 140V230 10SM BKN010 OVC016 16/12 A2962 RMK AO1
Loading
Personal Weather Stations






























Interactive Weather Map New forecast layout! Learn more

10-Day Weather Forecast

Advertisements
Track Severe Weather on mobile